KSPA/SPA METAR and TAF weather

Enter ICAO airport designator
Station Type Date Time Source
KSPA METAR 2019/12/14 17:15 UTC NOAA

KSPA 141715Z AUTO 27008KT 10SM SCT018 SCT024 13/07 A2959 RMK AO2


Station Type Date Time Source
KSPA Decoded METAR 2019/12/14 17:15 UTC NOAA

Spartanburg Memorial, SC, United States (KSPA) 34-55N 081-57W
Dec 14, 2019 - 12:15 PM EST / 2019.12.14 1715 UTC
Wind: from the W (270 degrees) at 9 MPH (8 KT):0
Visibility: 10 mile(s):0
Sky conditions: partly cloudy
Temperature: 55 F (13 C)
Dew Point: 44 F (7 C)
Relative Humidity: 66%
Pressure (altimeter): 29.59 in. Hg (1002 hPa)
ob: KSPA 141715Z AUTO 27008KT 10SM SCT018 SCT024 13/07 A2959 RMK AO2
cycle: 17

Station Type Date Time Source
KSPA TAF UTC NOAA

Error!

Example: see airport list